createdAt,value
2022-10-04T00:01:11.948Z,20.94
2022-10-04T00:03:45.181Z,20.95
2022-10-04T00:06:18.775Z,20.91
2022-10-04T00:08:51.967Z,20.95
2022-10-04T00:11:26.517Z,20.96
2022-10-04T00:13:58.119Z,20.95
2022-10-04T00:16:31.385Z,20.95
2022-10-04T00:19:22.606Z,20.92
2022-10-04T00:22:27.362Z,20.95
2022-10-04T00:25:20.999Z,20.92
2022-10-04T00:28:28.143Z,20.91
2022-10-04T00:31:25.866Z,20.91
2022-10-04T00:33:55.882Z,20.90
2022-10-04T00:36:45.567Z,20.93
2022-10-04T00:39:27.578Z,20.83
2022-10-04T00:42:04.715Z,20.91
2022-10-04T00:44:40.281Z,20.88
2022-10-04T00:47:25.356Z,20.91
2022-10-04T00:49:57.847Z,20.90
2022-10-04T00:52:30.455Z,20.90
2022-10-04T00:55:01.266Z,20.91
2022-10-04T00:57:32.907Z,20.33
2022-10-04T01:00:04.143Z,20.92
2022-10-04T01:02:39.260Z,20.93
2022-10-04T01:05:11.988Z,20.93
2022-10-04T01:07:45.762Z,20.95
2022-10-04T01:10:21.059Z,20.94
2022-10-04T01:12:57.056Z,20.95
2022-10-04T01:15:35.076Z,20.93
2022-10-04T01:18:28.717Z,20.94
2022-10-04T01:21:00.495Z,20.93
2022-10-04T01:23:51.518Z,20.93
2022-10-04T01:26:41.315Z,20.90
2022-10-04T01:29:13.278Z,20.89
2022-10-04T01:31:45.262Z,20.93
2022-10-04T01:34:15.661Z,20.93
2022-10-04T01:36:44.662Z,20.92
2022-10-04T01:39:15.197Z,20.93
2022-10-04T01:41:51.352Z,20.90
2022-10-04T01:44:26.601Z,20.92
2022-10-04T01:46:57.925Z,20.93
2022-10-04T01:49:31.362Z,20.92
2022-10-04T01:52:07.683Z,20.93
2022-10-04T01:54:41.272Z,20.92
2022-10-04T01:57:17.426Z,20.92
2022-10-04T01:59:51.415Z,20.92
2022-10-04T02:02:25.455Z,20.91
2022-10-04T02:04:57.437Z,20.91
2022-10-04T02:07:30.053Z,20.92
2022-10-04T02:10:04.918Z,20.92
2022-10-04T02:12:35.075Z,20.92
2022-10-04T02:15:06.140Z,20.92
2022-10-04T02:17:40.037Z,20.93
2022-10-04T02:20:14.990Z,20.93
2022-10-04T02:22:44.436Z,20.94
2022-10-04T02:25:15.662Z,20.94
2022-10-04T02:27:43.864Z,20.94
2022-10-04T02:30:14.363Z,20.92
2022-10-04T02:32:59.944Z,20.92
2022-10-04T02:35:35.938Z,20.92
2022-10-04T02:38:14.914Z,20.93
2022-10-04T02:40:51.475Z,20.93
2022-10-04T02:43:26.204Z,20.92
2022-10-04T02:45:57.750Z,20.92
2022-10-04T02:48:40.074Z,20.93
2022-10-04T02:51:18.847Z,20.92
2022-10-04T02:53:54.772Z,20.91
2022-10-04T02:56:25.622Z,20.83
2022-10-04T02:58:55.202Z,20.90
2022-10-04T03:01:28.825Z,20.92
2022-10-04T03:04:01.877Z,20.89
2022-10-04T03:06:33.677Z,20.92
2022-10-04T03:09:06.582Z,20.93
2022-10-04T03:11:40.729Z,20.93
2022-10-04T03:14:15.015Z,20.93
2022-10-04T03:16:46.568Z,20.92
2022-10-04T03:19:18.238Z,20.92
2022-10-04T03:21:49.211Z,20.92
2022-10-04T03:24:20.440Z,20.93
2022-10-04T03:26:54.015Z,20.94
2022-10-04T03:29:25.753Z,20.93
2022-10-04T03:31:57.577Z,20.93
2022-10-04T03:34:30.132Z,20.93
2022-10-04T03:36:59.549Z,20.90
2022-10-04T03:39:33.759Z,20.93
2022-10-04T03:42:08.517Z,20.91
2022-10-04T03:44:37.214Z,20.86
2022-10-04T03:47:12.392Z,20.88
2022-10-04T03:49:46.210Z,20.90
2022-10-04T03:52:21.398Z,20.90
2022-10-04T03:54:52.642Z,20.90
2022-10-04T03:57:22.757Z,20.92
2022-10-04T03:59:51.634Z,20.91
2022-10-04T04:02:31.546Z,20.68
2022-10-04T04:05:10.117Z,21.12
2022-10-04T04:07:44.068Z,21.13
2022-10-04T04:10:22.370Z,21.14
2022-10-04T04:12:57.629Z,21.16
2022-10-04T04:15:30.552Z,21.17
2022-10-04T04:18:02.655Z,21.17
2022-10-04T04:20:34.484Z,21.15
2022-10-04T04:23:12.538Z,21.17
2022-10-04T04:25:43.161Z,21.16
2022-10-04T04:28:26.164Z,21.08
2022-10-04T04:30:58.857Z,21.15
2022-10-04T04:33:31.811Z,21.15
2022-10-04T04:36:06.234Z,21.15
2022-10-04T04:38:35.587Z,21.14
2022-10-04T04:41:10.866Z,21.16
2022-10-04T04:43:45.145Z,21.13
2022-10-04T04:46:29.453Z,21.15
2022-10-04T04:49:02.692Z,21.15
2022-10-04T04:51:33.458Z,21.07
2022-10-04T04:54:04.030Z,21.13
2022-10-04T04:56:34.179Z,21.16
2022-10-04T04:59:06.681Z,21.16
2022-10-04T05:01:37.313Z,21.15
2022-10-04T05:04:07.861Z,20.96
2022-10-04T05:06:38.800Z,21.18
2022-10-04T05:09:07.308Z,21.18
2022-10-04T05:11:39.170Z,21.16
2022-10-04T05:14:12.212Z,21.19
2022-10-04T05:16:45.800Z,21.19
2022-10-04T05:19:16.858Z,21.20
2022-10-04T05:21:47.942Z,21.22
2022-10-04T05:24:23.062Z,21.21
2022-10-04T05:26:53.730Z,21.23
2022-10-04T05:29:25.669Z,21.23
2022-10-04T05:32:04.564Z,21.23
2022-10-04T05:34:37.613Z,21.24
2022-10-04T05:37:27.963Z,21.23
2022-10-04T05:40:06.863Z,21.22
2022-10-04T05:42:41.620Z,20.99
2022-10-04T05:45:20.333Z,21.24
2022-10-04T05:47:50.733Z,21.24
2022-10-04T05:50:22.791Z,21.24
2022-10-04T05:52:52.737Z,21.24
2022-10-04T05:55:37.094Z,21.24
2022-10-04T05:58:27.910Z,21.21
2022-10-04T06:01:29.120Z,21.19
2022-10-04T06:04:13.260Z,21.16
2022-10-04T06:06:50.061Z,21.17
2022-10-04T06:09:36.758Z,21.16
2022-10-04T06:12:12.914Z,21.16
2022-10-04T06:15:12.458Z,21.17
2022-10-04T06:17:57.616Z,21.19
2022-10-04T06:20:59.415Z,21.21
2022-10-04T06:23:30.069Z,21.16
2022-10-04T06:26:02.311Z,21.23
2022-10-04T06:28:35.268Z,21.24
2022-10-04T06:31:26.425Z,21.26
2022-10-04T06:34:19.422Z,21.27
2022-10-04T06:37:10.315Z,21.27
2022-10-04T06:39:54.313Z,21.28
2022-10-04T06:42:48.174Z,21.27
2022-10-04T06:45:30.240Z,21.28
2022-10-04T06:48:32.568Z,21.28
2022-10-04T06:51:10.316Z,21.27
2022-10-04T06:53:50.017Z,21.26
2022-10-04T06:56:42.342Z,21.25
2022-10-04T06:59:30.370Z,21.26
2022-10-04T07:02:02.884Z,21.27
2022-10-04T07:05:03.251Z,21.29
2022-10-04T07:07:37.807Z,21.29
2022-10-04T07:10:26.959Z,21.28
2022-10-04T07:13:05.920Z,21.26
2022-10-04T07:15:43.429Z,21.22
2022-10-04T07:18:17.698Z,21.25
2022-10-04T07:20:49.079Z,21.26
2022-10-04T07:23:28.944Z,21.27
2022-10-04T07:26:01.950Z,21.29
2022-10-04T07:28:51.509Z,21.31
2022-10-04T07:31:26.171Z,21.32
2022-10-04T07:33:58.258Z,21.31
2022-10-04T07:36:31.067Z,21.34
2022-10-04T07:39:06.966Z,21.35
2022-10-04T07:41:41.131Z,20.81
2022-10-04T07:44:18.843Z,21.37
2022-10-04T07:46:52.946Z,21.37
2022-10-04T07:49:23.132Z,21.35
2022-10-04T07:52:15.862Z,21.34
2022-10-04T07:54:52.650Z,21.31
2022-10-04T07:57:27.210Z,21.28
2022-10-04T08:00:03.008Z,21.26
2022-10-04T08:02:45.550Z,21.26
2022-10-04T08:05:22.505Z,21.25
2022-10-04T08:08:23.059Z,21.25
2022-10-04T08:11:03.362Z,21.24
2022-10-04T08:13:45.507Z,21.19
2022-10-04T08:16:26.128Z,21.25
2022-10-04T08:19:10.383Z,21.27
2022-10-04T08:21:50.068Z,21.28
2022-10-04T08:24:26.092Z,21.31
2022-10-04T08:27:08.578Z,21.33
2022-10-04T08:29:51.349Z,21.32
2022-10-04T08:32:33.062Z,21.36
2022-10-04T08:35:20.046Z,21.38
2022-10-04T08:38:02.011Z,21.38
2022-10-04T08:41:06.203Z,21.38
2022-10-04T08:43:56.199Z,21.37
2022-10-04T08:46:49.337Z,21.34
2022-10-04T08:49:43.067Z,21.37
2022-10-04T08:52:42.973Z,21.38
2022-10-04T08:55:46.729Z,21.37
2022-10-04T08:58:18.027Z,21.37
2022-10-04T09:01:07.534Z,21.37
2022-10-04T09:04:16.969Z,21.29
2022-10-04T09:06:55.657Z,21.37
2022-10-04T09:10:11.958Z,21.37
2022-10-04T09:12:53.250Z,21.37
2022-10-04T09:15:39.270Z,21.38
2022-10-04T09:18:23.005Z,21.30
2022-10-04T09:21:02.208Z,21.38
2022-10-04T09:23:56.268Z,21.38
2022-10-04T09:26:26.751Z,21.38
2022-10-04T09:29:18.361Z,21.40
2022-10-04T09:32:06.401Z,21.37
2022-10-04T09:34:52.134Z,21.35
2022-10-04T09:37:44.902Z,21.36
2022-10-04T09:41:03.826Z,21.34
2022-10-04T09:44:21.520Z,21.32
2022-10-04T09:47:04.684Z,21.30
2022-10-04T09:50:06.008Z,21.28
2022-10-04T09:52:41.986Z,21.27
2022-10-04T09:55:24.550Z,21.25
2022-10-04T09:58:13.607Z,21.24
2022-10-04T10:00:47.789Z,21.24
2022-10-04T10:03:42.256Z,21.23
2022-10-04T10:06:28.430Z,21.20
2022-10-04T10:09:11.153Z,21.23
2022-10-04T10:12:06.993Z,21.21
2022-10-04T10:15:14.451Z,21.25
2022-10-04T10:17:51.349Z,21.24
2022-10-04T10:20:52.007Z,21.25
2022-10-04T10:23:37.122Z,21.23
2022-10-04T10:26:55.585Z,21.23
2022-10-04T10:29:50.179Z,21.21
2022-10-04T10:32:37.835Z,21.21
2022-10-04T10:35:28.155Z,21.20
2022-10-04T10:38:41.001Z,21.19
2022-10-04T10:41:31.452Z,21.19
2022-10-04T10:44:22.787Z,21.18
2022-10-04T10:47:01.415Z,21.15
2022-10-04T10:49:45.552Z,21.17
2022-10-04T10:52:59.458Z,21.18
2022-10-04T10:55:53.872Z,21.17
2022-10-04T10:59:02.248Z,21.17
2022-10-04T11:02:10.265Z,21.16
2022-10-04T11:04:54.908Z,21.15
2022-10-04T11:07:44.866Z,21.10
2022-10-04T11:10:54.702Z,21.16
2022-10-04T11:14:02.881Z,21.21
2022-10-04T11:17:06.404Z,21.25
2022-10-04T11:20:18.438Z,21.25
2022-10-04T11:23:22.673Z,21.26
2022-10-04T11:26:03.153Z,21.27
2022-10-04T11:28:46.928Z,21.29
2022-10-04T11:31:40.688Z,21.27
2022-10-04T11:34:44.401Z,21.32
2022-10-04T11:37:21.135Z,21.33
2022-10-04T11:40:02.090Z,21.34
2022-10-04T11:42:51.675Z,21.37
2022-10-04T11:45:36.381Z,21.28
2022-10-04T11:48:20.653Z,21.38
2022-10-04T11:51:11.118Z,21.40
2022-10-04T11:54:08.034Z,21.42
2022-10-04T11:56:56.591Z,21.42
2022-10-04T11:59:38.954Z,21.43
2022-10-04T12:02:50.242Z,21.43
2022-10-04T12:05:56.747Z,21.44
2022-10-04T12:08:33.242Z,21.44
2022-10-04T12:11:57.056Z,21.44
2022-10-04T12:14:42.121Z,21.44
2022-10-04T12:17:40.845Z,21.43
2022-10-04T12:20:29.168Z,21.42
2022-10-04T12:23:29.655Z,21.45
2022-10-04T12:26:33.570Z,21.45
2022-10-04T12:29:20.203Z,21.45
2022-10-04T12:31:53.555Z,21.46
2022-10-04T12:34:29.228Z,21.26
2022-10-04T12:37:23.004Z,21.46
2022-10-04T12:40:07.749Z,21.47
2022-10-04T12:42:47.021Z,21.46
2022-10-04T12:45:44.495Z,21.43
2022-10-04T12:48:38.461Z,21.48
2022-10-04T12:51:21.953Z,21.47
2022-10-04T12:53:58.874Z,21.31
2022-10-04T12:56:44.099Z,21.45
2022-10-04T12:59:24.840Z,21.44
2022-10-04T13:02:01.845Z,21.44
2022-10-04T13:04:40.412Z,21.43
2022-10-04T13:07:34.548Z,21.42
2022-10-04T13:10:24.502Z,21.43
2022-10-04T13:13:25.114Z,21.45
2022-10-04T13:18:56.461Z,21.43
2022-10-04T13:21:54.474Z,21.46
2022-10-04T13:24:29.454Z,21.47
2022-10-04T13:27:04.259Z,21.49
2022-10-04T13:29:42.007Z,21.47
2022-10-04T13:32:19.623Z,21.49
2022-10-04T13:34:58.522Z,21.49
2022-10-04T13:37:37.917Z,21.49
2022-10-04T13:40:39.235Z,21.49
2022-10-04T13:43:23.619Z,21.50
2022-10-04T13:46:12.238Z,21.52
2022-10-04T13:48:59.330Z,21.54
2022-10-04T13:51:39.930Z,21.52
2022-10-04T13:54:40.308Z,21.51
2022-10-04T13:57:30.587Z,21.49
2022-10-04T14:00:05.831Z,20.90
2022-10-04T14:03:00.921Z,21.45
2022-10-04T14:06:05.185Z,21.42
2022-10-04T14:09:20.645Z,21.25
2022-10-04T14:12:08.540Z,21.34
2022-10-04T14:15:18.520Z,21.31
2022-10-04T14:18:27.312Z,21.34
2022-10-04T14:21:45.939Z,21.28
2022-10-04T14:24:54.821Z,21.35
2022-10-04T14:27:59.893Z,21.38
2022-10-04T14:30:41.869Z,21.38
2022-10-04T14:33:36.258Z,21.38
2022-10-04T14:36:31.358Z,21.32
2022-10-04T14:39:25.912Z,21.41
2022-10-04T14:42:14.415Z,21.42
2022-10-04T14:45:03.015Z,21.42
2022-10-04T14:47:58.438Z,21.43
2022-10-04T14:50:34.214Z,21.43
2022-10-04T14:53:20.587Z,21.44
2022-10-04T14:56:24.147Z,21.46
2022-10-04T14:59:03.882Z,21.46
2022-10-04T15:01:35.204Z,21.46
2022-10-04T15:04:29.300Z,21.44
2022-10-04T15:07:02.088Z,21.45
2022-10-04T15:09:55.383Z,21.46
2022-10-04T15:13:10.358Z,21.48
2022-10-04T15:15:56.359Z,21.48
2022-10-04T15:18:39.285Z,21.48
2022-10-04T15:21:32.507Z,21.47
2022-10-04T15:24:25.681Z,21.49
2022-10-04T15:27:17.526Z,21.45
2022-10-04T15:29:55.229Z,21.48
2022-10-04T15:32:35.461Z,21.46
2022-10-04T15:35:22.003Z,21.49
2022-10-04T15:37:57.569Z,21.49
2022-10-04T15:40:47.136Z,21.49
2022-10-04T15:43:24.158Z,21.52
2022-10-04T15:46:13.260Z,21.52
2022-10-04T15:48:58.989Z,21.51
2022-10-04T15:51:46.423Z,21.51
2022-10-04T15:54:57.178Z,21.50
2022-10-04T15:57:37.076Z,21.48
2022-10-04T16:00:14.351Z,21.45
2022-10-04T16:02:53.561Z,21.46
2022-10-04T16:05:36.973Z,21.44
2022-10-04T16:08:41.810Z,21.41
2022-10-04T16:11:31.778Z,21.41
2022-10-04T16:14:35.849Z,21.41
2022-10-04T16:17:28.902Z,21.39
2022-10-04T16:20:20.201Z,21.35
2022-10-04T16:23:17.959Z,21.36
2022-10-04T16:25:51.704Z,21.35
2022-10-04T16:28:32.025Z,21.32
2022-10-04T16:34:10.494Z,21.34
2022-10-04T16:36:48.800Z,21.32
2022-10-04T16:39:53.082Z,21.31
2022-10-04T16:42:25.477Z,21.31
2022-10-04T16:44:58.808Z,21.31
2022-10-04T16:47:32.051Z,21.17
2022-10-04T16:50:05.046Z,21.29
2022-10-04T16:52:54.763Z,21.30
2022-10-04T16:55:37.775Z,21.29
2022-10-04T16:58:42.860Z,21.30
2022-10-04T17:02:01.645Z,21.28
2022-10-04T17:04:56.880Z,21.27
2022-10-04T17:07:40.130Z,21.26
2022-10-04T17:10:23.080Z,21.25
2022-10-04T17:12:57.491Z,21.26
2022-10-04T17:15:38.731Z,21.26
2022-10-04T17:18:19.960Z,21.25
2022-10-04T17:20:57.716Z,21.25
2022-10-04T17:23:55.019Z,21.22
2022-10-04T17:26:45.888Z,21.06
2022-10-04T17:29:35.783Z,21.25
2022-10-04T17:32:16.981Z,21.24
2022-10-04T17:35:03.605Z,21.23
2022-10-04T17:37:44.738Z,21.34
2022-10-04T17:40:42.653Z,21.38
2022-10-04T17:43:23.005Z,21.28
2022-10-04T17:46:04.785Z,21.37
2022-10-04T17:48:57.669Z,21.14
2022-10-04T17:52:02.109Z,21.32
2022-10-04T17:54:52.207Z,21.33
2022-10-04T17:57:27.246Z,21.30
2022-10-04T18:00:08.423Z,21.34
2022-10-04T18:02:56.182Z,21.37
2022-10-04T18:05:30.974Z,21.35
2022-10-04T18:08:03.025Z,21.29
2022-10-04T18:10:36.713Z,21.35
2022-10-04T18:13:14.407Z,21.34
2022-10-04T18:15:53.422Z,21.34
2022-10-04T18:18:25.961Z,21.32
2022-10-04T18:21:07.975Z,21.32
2022-10-04T18:23:39.859Z,21.31
2022-10-04T18:26:17.695Z,21.30
2022-10-04T18:28:49.092Z,21.30
2022-10-04T18:31:30.403Z,21.31
2022-10-04T18:34:02.696Z,21.29
2022-10-04T18:36:32.955Z,21.21
2022-10-04T18:39:19.643Z,21.28
2022-10-04T18:41:59.085Z,21.27
2022-10-04T18:44:31.304Z,21.23
2022-10-04T18:47:02.335Z,21.27
2022-10-04T18:49:33.444Z,21.27
2022-10-04T18:52:27.730Z,21.25
2022-10-04T18:55:06.157Z,21.25
2022-10-04T18:58:01.268Z,21.26
2022-10-04T19:00:56.545Z,21.26
2022-10-04T19:03:34.992Z,21.25
2022-10-04T19:06:12.588Z,21.25
2022-10-04T19:08:53.344Z,21.28
2022-10-04T19:11:31.279Z,21.30
2022-10-04T19:14:08.710Z,21.32
2022-10-04T19:16:48.864Z,21.33
2022-10-04T19:19:53.697Z,21.36
2022-10-04T19:22:40.301Z,21.38
2022-10-04T19:25:34.666Z,21.35
2022-10-04T19:28:09.675Z,21.33
2022-10-04T19:30:56.574Z,21.32
2022-10-04T19:33:35.774Z,21.31
2022-10-04T19:36:22.257Z,21.27
2022-10-04T19:39:12.492Z,21.28
2022-10-04T19:41:56.540Z,21.29
2022-10-04T19:44:38.724Z,21.28
2022-10-04T19:47:23.296Z,21.23
2022-10-04T19:50:04.895Z,21.27
2022-10-04T19:52:56.691Z,21.26
2022-10-04T19:55:44.672Z,21.27
2022-10-04T19:58:39.028Z,21.27
2022-10-04T20:01:19.534Z,21.25
2022-10-04T20:04:10.202Z,21.26
2022-10-04T20:06:49.592Z,21.26
2022-10-04T20:09:36.129Z,21.21
2022-10-04T20:12:26.878Z,21.24
2022-10-04T20:15:44.294Z,21.20
2022-10-04T20:18:42.971Z,21.23
2022-10-04T20:21:15.524Z,21.23
2022-10-04T20:23:56.627Z,21.24
2022-10-04T20:27:01.311Z,21.24
2022-10-04T20:30:06.572Z,21.24
2022-10-04T20:33:02.891Z,21.23
2022-10-04T20:36:08.636Z,21.22
2022-10-04T20:39:00.633Z,21.22
2022-10-04T20:42:22.758Z,21.20
2022-10-04T20:44:55.736Z,21.21
2022-10-04T20:47:35.785Z,21.22
2022-10-04T20:50:07.764Z,21.22
2022-10-04T20:52:38.654Z,21.20
2022-10-04T20:55:28.806Z,21.22
2022-10-04T20:58:01.196Z,21.20
2022-10-04T21:00:34.019Z,21.21
2022-10-04T21:03:11.150Z,21.23
2022-10-04T21:05:40.210Z,21.22
2022-10-04T21:08:15.918Z,21.23
2022-10-04T21:11:13.166Z,21.22
2022-10-04T21:13:49.676Z,21.20
2022-10-04T21:16:40.393Z,21.22
2022-10-04T21:19:31.155Z,21.23
2022-10-04T21:22:00.265Z,21.02
2022-10-04T21:24:35.038Z,21.22
2022-10-04T21:27:05.870Z,21.22
2022-10-04T21:29:33.982Z,21.22
2022-10-04T21:32:02.618Z,21.24
2022-10-04T21:34:51.824Z,21.17
2022-10-04T21:37:19.601Z,21.24
2022-10-04T21:39:47.880Z,21.22
2022-10-04T21:42:17.728Z,21.23
2022-10-04T21:44:45.829Z,21.23
2022-10-04T21:47:13.975Z,21.24
2022-10-04T21:49:42.531Z,21.23
2022-10-04T21:52:10.684Z,21.22
2022-10-04T21:54:38.831Z,21.24
2022-10-04T21:57:06.965Z,21.23
2022-10-04T21:59:36.477Z,21.24
2022-10-04T22:02:05.462Z,21.16
2022-10-04T22:04:33.553Z,21.21
2022-10-04T22:07:01.764Z,21.22
2022-10-04T22:09:30.115Z,21.23
2022-10-04T22:11:58.178Z,21.23
2022-10-04T22:14:26.565Z,21.22
2022-10-04T22:16:56.152Z,21.24
2022-10-04T22:19:24.304Z,21.24
2022-10-04T22:21:52.375Z,21.21
2022-10-04T22:24:22.110Z,21.24
2022-10-04T22:26:50.673Z,21.24
2022-10-04T22:29:19.170Z,21.23
2022-10-04T22:31:50.944Z,21.22
2022-10-04T22:34:23.056Z,21.21
2022-10-04T22:36:53.207Z,21.19
2022-10-04T22:39:22.213Z,21.21
2022-10-04T22:41:55.435Z,21.20
2022-10-04T22:44:26.365Z,21.21
2022-10-04T22:46:56.699Z,21.21
2022-10-04T22:49:29.212Z,21.19
2022-10-04T22:51:58.920Z,20.97
2022-10-04T22:54:29.378Z,21.22
2022-10-04T22:56:58.720Z,21.21
2022-10-04T22:59:35.738Z,21.21
2022-10-04T23:02:08.763Z,21.22
2022-10-04T23:04:38.286Z,21.22
2022-10-04T23:07:06.491Z,21.21
2022-10-04T23:09:34.618Z,21.21
2022-10-04T23:12:03.222Z,21.21
2022-10-04T23:14:31.296Z,21.20
2022-10-04T23:16:59.467Z,21.21
2022-10-04T23:19:27.628Z,21.21
2022-10-04T23:21:57.120Z,21.20
2022-10-04T23:24:25.429Z,21.19
2022-10-04T23:26:57.172Z,21.19
2022-10-04T23:29:27.409Z,21.20
2022-10-04T23:31:56.873Z,21.20
2022-10-04T23:34:30.002Z,21.19
2022-10-04T23:36:59.903Z,21.19
2022-10-04T23:39:30.977Z,21.19
2022-10-04T23:41:59.389Z,21.17
2022-10-04T23:44:34.790Z,21.20
2022-10-04T23:47:03.879Z,21.09
2022-10-04T23:49:32.061Z,21.20
2022-10-04T23:52:04.658Z,21.20
2022-10-04T23:54:32.771Z,21.17
2022-10-04T23:57:00.896Z,21.07
2022-10-04T23:59:30.290Z,21.20
